首页
METAR-TAF:

METAR-TAF

机场 :

安巴托, 厄瓜多尔

纬度: 01-12-43S, 经度: 078-34-28W, 海拔: 2591米

当前天气观测

该预报发布于2小时和36分钟前的23:00 UTC
风速5节,风向南转西南
温度 19°C
湿度 64%
气压 1027 hPa
能见度10公里或以上
少量云层高于3000英尺

METAR: SEAM 242300Z 21005KT 9999 FEW030 19/12 Q1027

时间: 20:36 (01:36 UTC)


TAF: 丢失

超过4000个机场的气象观测和天气预报(METAR&TAF报告)。

可查询的气象台以黄色和红色小点在地图上表示。

将鼠标移到小点上方,可查看气象台名称。

然后点击查看天气观测和预报。

如需切换地图:点击带黑十字的绿色按钮放大地图;点击带横线的绿色按钮缩小地图;或者点击绿色箭头查看邻近地区的地图。


METAR-TAF: